createdAt,value
2023-02-17T00:01:44.563Z,74.68
2023-02-17T00:04:13.319Z,75.98
2023-02-17T00:06:41.844Z,77.92
2023-02-17T00:09:11.393Z,79.52
2023-02-17T00:11:39.560Z,81.51
2023-02-17T00:14:08.297Z,83.31
2023-02-17T00:16:36.428Z,84.73
2023-02-17T00:19:24.848Z,86.74
2023-02-17T00:21:55.501Z,85.51
2023-02-17T00:24:25.212Z,86.51
2023-02-17T00:26:53.378Z,86.59
2023-02-17T00:29:22.541Z,86.58
2023-02-17T00:31:50.951Z,87.00
2023-02-17T00:34:19.060Z,87.01
2023-02-17T00:36:47.555Z,87.88
2023-02-17T00:39:17.020Z,87.49
2023-02-17T00:41:46.455Z,87.19
2023-02-17T00:44:18.821Z,86.62
2023-02-17T00:46:47.210Z,87.03
2023-02-17T00:49:17.178Z,86.81
2023-02-17T00:51:45.750Z,87.02
2023-02-17T00:54:13.943Z,86.94
2023-02-17T00:56:42.298Z,86.92
2023-02-17T00:59:12.379Z,87.51
2023-02-17T01:01:41.690Z,87.45
2023-02-17T01:04:10.752Z,87.24
2023-02-17T01:06:41.401Z,87.19
2023-02-17T01:09:10.616Z,87.36
2023-02-17T01:11:39.692Z,87.76
2023-02-17T01:14:08.125Z,87.49
2023-02-17T01:16:39.996Z,87.33
2023-02-17T01:19:10.151Z,86.82
2023-02-17T01:21:38.411Z,87.79
2023-02-17T01:24:08.991Z,87.39
2023-02-17T01:26:39.129Z,86.36
2023-02-17T01:29:08.140Z,86.89
2023-02-17T01:31:37.762Z,85.62
2023-02-17T01:34:07.582Z,87.67
2023-02-17T01:36:38.436Z,86.05
2023-02-17T01:39:07.820Z,85.80
2023-02-17T01:41:36.632Z,85.79
2023-02-17T01:44:14.451Z,85.35
2023-02-17T01:46:45.343Z,84.84
2023-02-17T01:49:21.906Z,84.83
2023-02-17T01:51:53.263Z,84.34
2023-02-17T01:54:27.437Z,84.73
2023-02-17T01:56:56.199Z,84.63
2023-02-17T01:59:24.443Z,84.23
2023-02-17T02:01:57.018Z,85.40
2023-02-17T02:04:27.691Z,86.28
2023-02-17T02:06:56.210Z,87.03
2023-02-17T02:09:30.552Z,87.38
2023-02-17T02:12:00.998Z,87.45
2023-02-17T02:14:33.366Z,88.01
2023-02-17T02:17:09.866Z,88.79
2023-02-17T02:20:13.401Z,89.33
2023-02-17T02:22:56.041Z,90.14
2023-02-17T02:25:50.981Z,90.98
2023-02-17T02:28:31.377Z,91.56
2023-02-17T02:31:12.565Z,92.00
2023-02-17T02:33:46.974Z,92.17
2023-02-17T02:36:17.608Z,92.37
2023-02-17T02:38:54.004Z,92.65
2023-02-17T02:41:25.655Z,92.59
2023-02-17T02:43:54.838Z,92.68
2023-02-17T02:46:24.927Z,92.60
2023-02-17T02:48:59.142Z,93.15
2023-02-17T02:51:49.381Z,92.91
2023-02-17T02:54:42.431Z,93.08
2023-02-17T02:57:21.696Z,92.71
2023-02-17T03:00:12.214Z,93.15
2023-02-17T03:02:46.656Z,93.17
2023-02-17T03:05:24.934Z,93.14
2023-02-17T03:08:01.482Z,93.12
2023-02-17T03:10:35.084Z,93.32
2023-02-17T03:13:04.661Z,93.23
2023-02-17T03:15:34.912Z,93.64
2023-02-17T03:18:04.326Z,93.73
2023-02-17T03:20:39.163Z,93.30
2023-02-17T03:23:07.656Z,93.36
2023-02-17T03:25:39.738Z,92.98
2023-02-17T03:28:10.807Z,93.54
2023-02-17T03:30:39.330Z,93.46
2023-02-17T03:33:07.203Z,92.76
2023-02-17T03:35:38.350Z,92.78
2023-02-17T03:38:07.951Z,93.01
2023-02-17T03:40:37.994Z,93.26
2023-02-17T03:43:06.494Z,93.07
2023-02-17T03:45:39.481Z,92.70
2023-02-17T03:48:10.255Z,93.27
2023-02-17T03:50:41.264Z,93.13
2023-02-17T03:53:12.447Z,93.38
2023-02-17T03:55:41.518Z,93.73
2023-02-17T03:58:14.647Z,93.72
2023-02-17T04:00:44.192Z,93.85
2023-02-17T04:03:12.355Z,93.83
2023-02-17T04:05:45.653Z,94.35
2023-02-17T04:08:13.970Z,94.42
2023-02-17T04:10:42.351Z,94.11
2023-02-17T04:13:10.825Z,94.62
2023-02-17T04:15:39.408Z,94.84
2023-02-17T04:18:07.466Z,94.76
2023-02-17T04:20:36.034Z,94.99
2023-02-17T04:23:05.243Z,95.11
2023-02-17T04:25:35.298Z,95.20
2023-02-17T04:28:03.545Z,95.11
2023-02-17T04:30:32.060Z,95.21
2023-02-17T04:33:00.120Z,95.21
2023-02-17T04:35:29.378Z,95.30
2023-02-17T04:38:00.511Z,95.28
2023-02-17T04:40:29.994Z,95.81
2023-02-17T04:42:58.253Z,95.48
2023-02-17T04:45:26.407Z,95.44
2023-02-17T04:47:55.095Z,95.62
2023-02-17T04:50:23.441Z,94.88
2023-02-17T04:52:52.310Z,95.62
2023-02-17T04:55:23.879Z,95.70
2023-02-17T04:57:53.195Z,95.76
2023-02-17T05:00:23.112Z,95.65
2023-02-17T05:02:51.326Z,95.65
2023-02-17T05:05:22.001Z,95.62
2023-02-17T05:07:51.282Z,95.82
2023-02-17T05:10:24.231Z,95.92
2023-02-17T05:12:53.594Z,95.91
2023-02-17T05:15:22.451Z,96.31
2023-02-17T05:17:50.511Z,95.88
2023-02-17T05:20:19.189Z,95.71
2023-02-17T05:22:47.670Z,95.81
2023-02-17T05:25:15.977Z,96.08
2023-02-17T05:27:44.194Z,96.10
2023-02-17T05:30:17.890Z,95.86
2023-02-17T05:32:45.848Z,95.65
2023-02-17T05:35:14.362Z,96.02
2023-02-17T05:37:43.049Z,95.92
2023-02-17T05:40:11.775Z,95.92
2023-02-17T05:42:39.857Z,95.68
2023-02-17T05:45:08.298Z,96.01
2023-02-17T05:47:38.256Z,95.75
2023-02-17T05:50:08.322Z,95.66
2023-02-17T05:52:36.189Z,95.43
2023-02-17T05:55:06.094Z,95.26
2023-02-17T05:57:34.437Z,95.76
2023-02-17T06:00:05.822Z,95.97
2023-02-17T06:02:46.059Z,95.37
2023-02-17T06:05:14.192Z,94.79
2023-02-17T06:07:42.093Z,94.86
2023-02-17T06:10:11.237Z,95.45
2023-02-17T06:12:40.369Z,94.90
2023-02-17T06:15:08.926Z,95.01
2023-02-17T06:17:37.202Z,95.17
2023-02-17T06:20:08.149Z,94.70
2023-02-17T06:22:37.517Z,95.00
2023-02-17T06:25:05.866Z,94.77
2023-02-17T06:27:33.985Z,95.03
2023-02-17T06:30:04.242Z,94.65
2023-02-17T06:32:32.435Z,94.50
2023-02-17T06:35:01.390Z,94.16
2023-02-17T06:37:30.939Z,94.28
2023-02-17T06:39:59.304Z,94.08
2023-02-17T06:42:27.545Z,93.70
2023-02-17T06:44:55.800Z,93.71
2023-02-17T06:47:24.938Z,93.60
2023-02-17T06:49:57.279Z,93.29
2023-02-17T06:52:25.407Z,93.35
2023-02-17T06:54:54.897Z,93.48
2023-02-17T06:57:23.416Z,93.43
2023-02-17T06:59:51.662Z,93.20
2023-02-17T07:02:19.919Z,92.42
2023-02-17T07:04:47.987Z,92.65
2023-02-17T07:07:18.528Z,92.74
2023-02-17T07:09:46.913Z,92.64
2023-02-17T07:12:16.874Z,92.35
2023-02-17T07:14:44.994Z,91.67
2023-02-17T07:17:14.129Z,92.27
2023-02-17T07:19:42.138Z,91.50
2023-02-17T07:22:10.220Z,91.74
2023-02-17T07:24:38.496Z,91.77
2023-02-17T07:27:10.821Z,91.79
2023-02-17T07:29:42.871Z,91.37
2023-02-17T07:32:11.514Z,91.16
2023-02-17T07:34:39.697Z,91.24
2023-02-17T07:37:10.533Z,91.43
2023-02-17T07:39:39.133Z,90.83
2023-02-17T07:42:07.614Z,91.12
2023-02-17T07:44:35.885Z,90.30
2023-02-17T07:47:05.745Z,90.20
2023-02-17T07:49:35.098Z,90.21
2023-02-17T07:52:05.318Z,89.52
2023-02-17T07:54:34.229Z,89.70
2023-02-17T07:57:04.537Z,89.68
2023-02-17T07:59:32.930Z,89.43
2023-02-17T08:02:04.821Z,89.88
2023-02-17T08:04:34.646Z,89.06
2023-02-17T08:07:03.237Z,88.83
2023-02-17T08:09:49.467Z,88.69
2023-02-17T08:12:36.197Z,88.75
2023-02-17T08:15:04.267Z,88.19
2023-02-17T08:17:33.413Z,88.57
2023-02-17T08:20:08.824Z,88.36
2023-02-17T08:22:38.015Z,87.93
2023-02-17T08:25:06.586Z,88.66
2023-02-17T08:27:35.769Z,88.88
2023-02-17T08:30:03.783Z,89.37
2023-02-17T08:32:31.930Z,88.66
2023-02-17T08:35:00.547Z,89.53
2023-02-17T08:37:33.904Z,89.49
2023-02-17T08:40:01.969Z,90.29
2023-02-17T08:42:30.846Z,91.11
2023-02-17T08:44:59.675Z,91.58
2023-02-17T08:47:29.284Z,92.10
2023-02-17T08:49:59.087Z,92.01
2023-02-17T08:52:30.328Z,92.49
2023-02-17T08:54:58.510Z,92.54
2023-02-17T08:57:26.801Z,92.93
2023-02-17T08:59:57.792Z,92.86
2023-02-17T09:02:26.710Z,93.18
2023-02-17T09:04:54.651Z,93.17
2023-02-17T09:07:25.580Z,93.23
2023-02-17T09:09:57.397Z,93.50
2023-02-17T09:12:27.290Z,93.57
2023-02-17T09:14:55.178Z,94.10
2023-02-17T09:17:23.409Z,93.63
2023-02-17T09:19:53.884Z,94.12
2023-02-17T09:22:31.619Z,94.28
2023-02-17T09:25:09.730Z,93.91
2023-02-17T09:27:38.578Z,94.36
2023-02-17T09:30:08.012Z,94.32
2023-02-17T09:32:37.600Z,95.02
2023-02-17T09:35:06.920Z,94.29
2023-02-17T09:37:39.779Z,94.27
2023-02-17T09:40:10.113Z,94.71
2023-02-17T09:42:41.546Z,94.81
2023-02-17T09:45:13.241Z,94.84
2023-02-17T09:47:47.189Z,95.40
2023-02-17T09:50:18.932Z,95.27
2023-02-17T09:52:53.536Z,94.68
2023-02-17T09:55:27.838Z,94.83
2023-02-17T09:57:59.915Z,95.19
2023-02-17T10:00:33.389Z,95.52
2023-02-17T10:03:06.387Z,95.13
2023-02-17T10:05:40.686Z,95.63
2023-02-17T10:08:12.824Z,94.69
2023-02-17T10:10:48.807Z,95.52
2023-02-17T10:13:20.377Z,95.78
2023-02-17T10:15:51.997Z,96.06
2023-02-17T10:18:28.942Z,95.85
2023-02-17T10:21:01.123Z,95.86
2023-02-17T10:23:30.929Z,95.41
2023-02-17T10:26:10.994Z,95.61
2023-02-17T10:28:48.242Z,95.21
2023-02-17T10:31:22.288Z,95.55
2023-02-17T10:33:56.332Z,95.75
2023-02-17T10:36:31.905Z,95.10
2023-02-17T10:39:05.035Z,95.58
2023-02-17T10:41:37.725Z,95.37
2023-02-17T10:44:09.321Z,95.63
2023-02-17T10:46:42.079Z,95.31
2023-02-17T10:49:18.214Z,94.87
2023-02-17T10:51:47.852Z,94.82
2023-02-17T10:54:26.658Z,94.81
2023-02-17T10:57:00.407Z,94.32
2023-02-17T10:59:31.308Z,93.95
2023-02-17T11:02:07.838Z,93.47
2023-02-17T11:04:42.544Z,93.18
2023-02-17T11:07:13.937Z,93.54
2023-02-17T11:09:48.610Z,93.19
2023-02-17T11:12:23.720Z,93.13
2023-02-17T11:14:56.191Z,92.45
2023-02-17T11:17:31.197Z,92.13
2023-02-17T11:20:04.079Z,91.98
2023-02-17T11:22:41.012Z,92.25
2023-02-17T11:25:24.429Z,91.97
2023-02-17T11:27:56.686Z,92.07
2023-02-17T11:30:26.073Z,92.23
2023-02-17T11:32:57.594Z,91.26
2023-02-17T11:35:32.210Z,91.35
2023-02-17T11:38:05.070Z,90.51
2023-02-17T11:40:34.775Z,90.72
2023-02-17T11:43:08.876Z,90.84
2023-02-17T11:45:43.788Z,90.52
2023-02-17T11:48:42.383Z,91.02
2023-02-17T11:51:13.204Z,90.09
2023-02-17T11:53:49.857Z,89.63
2023-02-17T11:56:19.323Z,89.32
2023-02-17T11:59:24.172Z,89.32
2023-02-17T12:02:17.634Z,89.23
2023-02-17T12:05:10.546Z,88.59
2023-02-17T12:07:46.647Z,88.67
2023-02-17T12:10:20.114Z,88.01
2023-02-17T12:13:04.835Z,87.91
2023-02-17T12:15:44.245Z,87.42
2023-02-17T12:18:30.434Z,87.33
2023-02-17T12:21:07.508Z,87.61
2023-02-17T12:23:52.099Z,86.41
2023-02-17T12:26:28.697Z,87.09
2023-02-17T12:29:06.379Z,86.19
2023-02-17T12:32:00.443Z,86.19
2023-02-17T12:34:34.494Z,86.26
2023-02-17T12:37:02.701Z,85.87
2023-02-17T12:39:34.841Z,84.20
2023-02-17T12:42:09.312Z,84.41
2023-02-17T12:44:42.156Z,83.08
2023-02-17T12:47:15.594Z,82.99
2023-02-17T12:49:50.447Z,83.23
2023-02-17T12:52:21.359Z,82.68
2023-02-17T12:54:52.799Z,82.81
2023-02-17T12:57:23.860Z,81.94
2023-02-17T12:59:53.421Z,81.72
2023-02-17T13:02:25.203Z,81.51
2023-02-17T13:04:56.253Z,81.63
2023-02-17T13:07:40.399Z,80.98
2023-02-17T13:10:21.042Z,81.55
2023-02-17T13:12:58.538Z,81.10
2023-02-17T13:15:29.897Z,81.10
2023-02-17T13:18:03.047Z,81.17
2023-02-17T13:20:56.895Z,80.97
2023-02-17T13:23:36.651Z,80.88
2023-02-17T13:26:26.804Z,80.61
2023-02-17T13:29:07.155Z,80.35
2023-02-17T13:31:46.907Z,80.20
2023-02-17T13:34:26.057Z,80.68
2023-02-17T13:36:56.577Z,80.46
2023-02-17T13:39:34.691Z,80.08
2023-02-17T13:42:03.302Z,80.23
2023-02-17T13:44:33.653Z,79.61
2023-02-17T13:47:04.981Z,79.70
2023-02-17T13:49:37.149Z,79.27
2023-02-17T13:52:13.320Z,79.41
2023-02-17T13:54:42.017Z,79.35
2023-02-17T13:57:25.685Z,79.48
2023-02-17T14:00:05.989Z,79.04
2023-02-17T14:02:55.563Z,79.30
2023-02-17T14:05:27.844Z,79.15
2023-02-17T14:08:00.964Z,79.13
2023-02-17T14:10:29.356Z,79.15
2023-02-17T14:12:58.009Z,78.73
2023-02-17T14:15:29.942Z,78.62
2023-02-17T14:17:58.756Z,79.03
2023-02-17T14:20:33.288Z,79.25
2023-02-17T14:23:07.656Z,78.65
2023-02-17T14:25:38.325Z,78.92
2023-02-17T14:28:19.834Z,78.71
2023-02-17T14:30:49.133Z,79.45
2023-02-17T14:33:24.519Z,79.59
2023-02-17T14:35:56.207Z,79.62
2023-02-17T14:38:31.930Z,80.19
2023-02-17T14:41:02.079Z,80.24
2023-02-17T14:43:30.268Z,80.28
2023-02-17T14:45:58.803Z,80.09
2023-02-17T14:48:29.654Z,80.16
2023-02-17T14:50:58.558Z,81.05
2023-02-17T14:53:31.302Z,83.54
2023-02-17T14:56:02.349Z,85.30
2023-02-17T14:58:33.648Z,88.01
2023-02-17T15:01:02.944Z,89.36
2023-02-17T15:03:31.906Z,90.63
2023-02-17T15:06:02.544Z,90.92
2023-02-17T15:08:36.229Z,90.79
2023-02-17T15:11:05.199Z,91.09
2023-02-17T15:13:33.391Z,91.53
2023-02-17T15:16:04.852Z,92.03
2023-02-17T15:18:33.025Z,92.05
2023-02-17T15:21:02.573Z,92.04
2023-02-17T15:23:35.061Z,91.99
2023-02-17T15:26:06.909Z,92.83
2023-02-17T15:28:35.420Z,92.71
2023-02-17T15:31:04.798Z,92.48
2023-02-17T15:33:33.489Z,93.01
2023-02-17T15:36:05.946Z,92.82
2023-02-17T15:38:36.233Z,93.02
2023-02-17T15:41:05.906Z,93.74
2023-02-17T15:46:13.107Z,93.85
2023-02-17T15:48:41.398Z,93.64
2023-02-17T15:51:12.181Z,92.96
2023-02-17T15:53:43.666Z,93.26
2023-02-17T15:56:14.711Z,92.31
2023-02-17T15:58:44.850Z,92.00
2023-02-17T16:01:18.840Z,92.35
2023-02-17T16:03:47.124Z,91.47
2023-02-17T16:06:15.625Z,91.43
2023-02-17T16:08:48.471Z,91.64
2023-02-17T16:11:18.216Z,90.68
2023-02-17T16:13:49.086Z,90.25
2023-02-17T16:16:20.192Z,89.99
2023-02-17T16:18:52.022Z,89.69
2023-02-17T16:21:23.856Z,88.94
2023-02-17T16:23:59.603Z,88.18
2023-02-17T16:26:33.536Z,88.24
2023-02-17T16:29:07.435Z,87.66
2023-02-17T16:31:35.889Z,88.20
2023-02-17T16:34:05.258Z,87.51
2023-02-17T16:36:36.165Z,87.63
2023-02-17T16:39:13.208Z,87.37
2023-02-17T16:41:42.723Z,86.66
2023-02-17T16:44:13.636Z,85.07
2023-02-17T16:46:47.282Z,84.07
2023-02-17T16:49:20.931Z,83.69
2023-02-17T16:51:49.813Z,83.84
2023-02-17T16:54:20.664Z,83.35
2023-02-17T16:56:51.125Z,82.81
2023-02-17T16:59:20.892Z,83.02
2023-02-17T17:01:49.713Z,82.39
2023-02-17T17:04:20.972Z,82.34
2023-02-17T17:06:52.953Z,81.35
2023-02-17T17:09:25.195Z,81.19
2023-02-17T17:11:55.731Z,81.04
2023-02-17T17:14:25.437Z,81.60
2023-02-17T17:16:57.085Z,80.85
2023-02-17T17:19:26.677Z,80.46
2023-02-17T17:21:57.127Z,80.06
2023-02-17T17:24:26.846Z,80.24
2023-02-17T17:26:58.051Z,80.35
2023-02-17T17:29:26.028Z,81.12
2023-02-17T17:31:54.898Z,81.02
2023-02-17T17:34:24.394Z,80.20
2023-02-17T17:36:53.383Z,80.54
2023-02-17T17:39:23.330Z,79.98
2023-02-17T17:41:53.432Z,79.39
2023-02-17T17:44:22.448Z,78.85
2023-02-17T17:46:54.035Z,78.75
2023-02-17T17:49:23.309Z,78.90
2023-02-17T17:51:52.166Z,78.37
2023-02-17T17:54:20.645Z,78.27
2023-02-17T17:56:48.847Z,78.00
2023-02-17T17:59:18.527Z,78.45
2023-02-17T18:01:47.147Z,79.23
2023-02-17T18:04:16.716Z,81.29
2023-02-17T18:06:47.806Z,83.80
2023-02-17T18:09:31.808Z,86.88
2023-02-17T18:12:03.241Z,88.65
2023-02-17T18:14:33.063Z,88.60
2023-02-17T18:17:03.531Z,87.90
2023-02-17T18:19:32.870Z,84.82
2023-02-17T18:22:04.576Z,87.45
2023-02-17T18:24:35.423Z,84.09
2023-02-17T18:27:05.222Z,80.60
2023-02-17T18:29:35.696Z,84.03
2023-02-17T18:32:06.488Z,82.25
2023-02-17T18:34:34.585Z,77.05
2023-02-17T18:37:07.313Z,80.09
2023-02-17T18:39:37.291Z,78.39
2023-02-17T18:42:06.342Z,77.91
2023-02-17T18:44:39.337Z,77.81
2023-02-17T18:47:07.776Z,77.58
2023-02-17T18:49:40.539Z,78.29
2023-02-17T18:52:13.516Z,79.16
2023-02-17T18:54:46.732Z,77.07
2023-02-17T18:57:21.706Z,77.05
2023-02-17T18:59:52.495Z,76.76
2023-02-17T19:02:28.701Z,79.62
2023-02-17T19:05:00.543Z,76.84
2023-02-17T19:07:28.965Z,78.33
2023-02-17T19:10:00.854Z,72.87
2023-02-17T19:12:30.000Z,70.37
2023-02-17T19:15:00.567Z,69.00
2023-02-17T19:17:32.800Z,65.92
2023-02-17T19:20:02.382Z,65.12
2023-02-17T19:22:32.333Z,63.99
2023-02-17T19:25:00.761Z,62.49
2023-02-17T19:27:28.964Z,63.26
2023-02-17T19:29:58.602Z,62.57
2023-02-17T19:32:28.891Z,61.93
2023-02-17T19:35:00.478Z,62.85
2023-02-17T19:37:30.422Z,63.05
2023-02-17T19:40:00.966Z,63.22
2023-02-17T19:42:29.521Z,62.93
2023-02-17T19:45:01.132Z,62.88
2023-02-17T19:47:31.739Z,62.26
2023-02-17T19:50:00.177Z,61.55
2023-02-17T19:52:33.438Z,61.74
2023-02-17T19:55:01.639Z,61.28
2023-02-17T19:57:30.293Z,62.18
2023-02-17T19:59:58.985Z,60.57
2023-02-17T20:02:27.065Z,60.95
2023-02-17T20:04:56.873Z,60.68
2023-02-17T20:07:25.666Z,61.34
2023-02-17T20:09:55.566Z,61.06
2023-02-17T20:12:23.890Z,61.21
2023-02-17T20:14:53.513Z,61.63
2023-02-17T20:17:24.260Z,62.35
2023-02-17T20:19:54.167Z,61.93
2023-02-17T20:22:24.174Z,62.94
2023-02-17T20:24:54.579Z,63.25
2023-02-17T20:27:24.128Z,62.92
2023-02-17T20:29:52.564Z,62.78
2023-02-17T20:32:24.343Z,63.13
2023-02-17T20:34:55.057Z,63.14
2023-02-17T20:37:35.132Z,63.67
2023-02-17T20:40:05.268Z,63.44
2023-02-17T20:42:34.573Z,63.40
2023-02-17T20:45:04.000Z,63.41
2023-02-17T20:47:33.233Z,64.62
2023-02-17T20:50:08.742Z,64.72
2023-02-17T20:52:39.371Z,65.07
2023-02-17T20:55:09.165Z,64.82
2023-02-17T20:57:39.691Z,64.93
2023-02-17T21:00:10.198Z,64.71
2023-02-17T21:02:39.539Z,64.47
2023-02-17T21:05:08.673Z,64.57
2023-02-17T21:07:41.599Z,64.48
2023-02-17T21:10:15.210Z,64.02
2023-02-17T21:12:43.816Z,64.99
2023-02-17T21:15:13.230Z,64.36
2023-02-17T21:17:41.598Z,64.70
2023-02-17T21:20:12.953Z,64.24
2023-02-17T21:22:44.245Z,64.61
2023-02-17T21:25:13.524Z,64.74
2023-02-17T21:27:44.833Z,64.83
2023-02-17T21:30:14.220Z,64.96
2023-02-17T21:32:43.762Z,65.05
2023-02-17T21:35:12.658Z,64.92
2023-02-17T21:37:41.094Z,65.13
2023-02-17T21:40:13.040Z,65.14
2023-02-17T21:43:08.854Z,65.33
2023-02-17T21:45:39.132Z,65.54
2023-02-17T21:48:07.897Z,65.88
2023-02-17T21:50:36.225Z,65.34
2023-02-17T21:53:05.209Z,66.01
2023-02-17T21:55:35.691Z,65.99
2023-02-17T21:58:03.998Z,66.06
2023-02-17T22:00:32.721Z,66.51
2023-02-17T22:03:02.947Z,65.97
2023-02-17T22:05:31.738Z,65.78
2023-02-17T22:08:00.100Z,65.74
2023-02-17T22:10:30.523Z,66.08
2023-02-17T22:13:00.190Z,65.90
2023-02-17T22:15:29.974Z,65.83
2023-02-17T22:17:58.045Z,66.06
2023-02-17T22:20:26.613Z,66.18
2023-02-17T22:22:57.144Z,66.26
2023-02-17T22:25:25.558Z,66.02
2023-02-17T22:27:54.180Z,66.06
2023-02-17T22:30:24.729Z,65.86
2023-02-17T22:32:54.117Z,66.40
2023-02-17T22:35:23.927Z,66.34
2023-02-17T22:37:52.464Z,66.45
2023-02-17T22:40:20.773Z,65.96
2023-02-17T22:42:50.935Z,65.97
2023-02-17T22:45:19.429Z,66.65
2023-02-17T22:47:49.526Z,66.74
2023-02-17T22:50:18.305Z,65.99
2023-02-17T22:52:47.225Z,66.50
2023-02-17T22:55:15.631Z,66.24
2023-02-17T22:57:46.897Z,66.18
2023-02-17T23:00:21.267Z,66.41
2023-02-17T23:02:51.679Z,66.09
2023-02-17T23:05:22.355Z,66.48
2023-02-17T23:07:55.144Z,66.71
2023-02-17T23:10:23.698Z,66.34
2023-02-17T23:12:51.685Z,66.98
2023-02-17T23:15:39.028Z,67.13
2023-02-17T23:18:11.186Z,67.42
2023-02-17T23:20:40.269Z,68.08
2023-02-17T23:23:08.797Z,67.02
2023-02-17T23:25:38.014Z,67.35
2023-02-17T23:28:07.153Z,67.64
2023-02-17T23:30:35.555Z,67.81
2023-02-17T23:33:05.376Z,68.07
2023-02-17T23:35:34.701Z,68.25
2023-02-17T23:38:02.606Z,68.27
2023-02-17T23:40:34.906Z,68.71
2023-02-17T23:43:03.230Z,68.91
2023-02-17T23:45:32.220Z,68.61
2023-02-17T23:48:01.636Z,68.96
2023-02-17T23:50:30.434Z,68.87
2023-02-17T23:53:02.720Z,69.49
2023-02-17T23:55:31.292Z,69.19
2023-02-17T23:58:00.969Z,69.53
